sensor_id;sensor_type;location;lat;lon;timestamp;pressure;altitude;pressure_sealevel;temperature;humidity
71976;BME280;60680;52.182;5.398;2022-08-19T00:00:53;101409.13;;;19.41;80.04
71976;BME280;60680;52.182;5.398;2022-08-19T00:03:19;101411.16;;;19.37;80.04
71976;BME280;60680;52.182;5.398;2022-08-19T00:05:46;101407.19;;;19.31;79.40
71976;BME280;60680;52.182;5.398;2022-08-19T00:08:12;101408.16;;;19.30;80.04
71976;BME280;60680;52.182;5.398;2022-08-19T00:10:39;101415.09;;;19.31;79.67
71976;BME280;60680;52.182;5.398;2022-08-19T00:13:05;101416.19;;;19.29;79.70
71976;BME280;60680;52.182;5.398;2022-08-19T00:15:32;101419.81;;;19.28;79.50
71976;BME280;60680;52.182;5.398;2022-08-19T00:17:58;101414.53;;;19.28;79.45
71976;BME280;60680;52.182;5.398;2022-08-19T00:20:25;101413.66;;;19.27;80.05
71976;BME280;60680;52.182;5.398;2022-08-19T00:22:52;101418.81;;;19.18;80.30
71976;BME280;60680;52.182;5.398;2022-08-19T00:25:18;101416.31;;;19.16;80.32
71976;BME280;60680;52.182;5.398;2022-08-19T00:27:56;101417.50;;;19.12;80.52
71976;BME280;60680;52.182;5.398;2022-08-19T00:30:23;101418.56;;;19.09;80.54
71976;BME280;60680;52.182;5.398;2022-08-19T00:32:49;101407.41;;;19.06;80.61
71976;BME280;60680;52.182;5.398;2022-08-19T00:35:17;101409.00;;;19.08;80.61
71976;BME280;60680;52.182;5.398;2022-08-19T00:37:44;101409.84;;;19.09;80.26
71976;BME280;60680;52.182;5.398;2022-08-19T00:40:12;101412.31;;;19.10;80.58
71976;BME280;60680;52.182;5.398;2022-08-19T00:42:38;101404.56;;;19.09;80.33
71976;BME280;60680;52.182;5.398;2022-08-19T00:45:11;101409.00;;;19.08;80.52
71976;BME280;60680;52.182;5.398;2022-08-19T00:47:38;101402.84;;;19.08;80.39
71976;BME280;60680;52.182;5.398;2022-08-19T00:50:05;101408.28;;;19.06;80.72
71976;BME280;60680;52.182;5.398;2022-08-19T00:52:38;101406.59;;;19.05;80.55
71976;BME280;60680;52.182;5.398;2022-08-19T00:55:08;101400.84;;;19.00;80.76
71976;BME280;60680;52.182;5.398;2022-08-19T00:57:40;101408.03;;;18.98;80.79
71976;BME280;60680;52.182;5.398;2022-08-19T01:00:12;101403.09;;;18.93;81.43
71976;BME280;60680;52.182;5.398;2022-08-19T01:02:41;101411.25;;;18.90;81.42
71976;BME280;60680;52.182;5.398;2022-08-19T01:05:11;101401.41;;;18.92;81.57
71976;BME280;60680;52.182;5.398;2022-08-19T01:07:40;101400.69;;;18.90;81.29
71976;BME280;60680;52.182;5.398;2022-08-19T01:10:10;101396.00;;;18.83;81.19
71976;BME280;60680;52.182;5.398;2022-08-19T01:12:38;101399.84;;;18.79;80.95
71976;BME280;60680;52.182;5.398;2022-08-19T01:15:07;101408.47;;;18.81;81.17
71976;BME280;60680;52.182;5.398;2022-08-19T01:17:36;101399.84;;;18.79;81.25
71976;BME280;60680;52.182;5.398;2022-08-19T01:20:04;101401.63;;;18.78;81.08
71976;BME280;60680;52.182;5.398;2022-08-19T01:22:40;101406.91;;;18.78;81.27
71976;BME280;60680;52.182;5.398;2022-08-19T01:25:09;101396.91;;;18.70;81.52
71976;BME280;60680;52.182;5.398;2022-08-19T01:27:42;101395.13;;;18.71;81.75
71976;BME280;60680;52.182;5.398;2022-08-19T01:30:18;101394.16;;;18.72;81.52
71976;BME280;60680;52.182;5.398;2022-08-19T01:32:45;101401.47;;;18.68;81.56
71976;BME280;60680;52.182;5.398;2022-08-19T01:35:12;101402.31;;;18.69;81.54
71976;BME280;60680;52.182;5.398;2022-08-19T01:37:52;101411.75;;;18.71;81.66
71976;BME280;60680;52.182;5.398;2022-08-19T01:40:20;101410.22;;;18.69;81.60
71976;BME280;60680;52.182;5.398;2022-08-19T01:42:49;101408.41;;;18.69;81.60
71976;BME280;60680;52.182;5.398;2022-08-19T01:45:17;101413.94;;;18.66;82.15
71976;BME280;60680;52.182;5.398;2022-08-19T01:47:44;101405.50;;;18.61;82.21
71976;BME280;60680;52.182;5.398;2022-08-19T01:50:23;101410.28;;;18.56;82.19
71976;BME280;60680;52.182;5.398;2022-08-19T01:52:50;101404.06;;;18.57;82.94
71976;BME280;60680;52.182;5.398;2022-08-19T01:55:35;101400.38;;;18.60;82.25
71976;BME280;60680;52.182;5.398;2022-08-19T01:58:10;101404.66;;;18.61;82.13
71976;BME280;60680;52.182;5.398;2022-08-19T02:00:38;101412.81;;;18.58;82.37
71976;BME280;60680;52.182;5.398;2022-08-19T02:03:05;101412.09;;;18.56;81.54
71976;BME280;60680;52.182;5.398;2022-08-19T02:05:32;101412.44;;;18.51;81.96
71976;BME280;60680;52.182;5.398;2022-08-19T02:07:59;101407.28;;;18.49;82.06
71976;BME280;60680;52.182;5.398;2022-08-19T02:10:25;101410.13;;;18.46;82.14
71976;BME280;60680;52.182;5.398;2022-08-19T02:12:52;101414.69;;;18.44;82.08
71976;BME280;60680;52.182;5.398;2022-08-19T02:15:19;101412.28;;;18.41;82.43
71976;BME280;60680;52.182;5.398;2022-08-19T02:17:47;101416.00;;;18.39;82.56
71976;BME280;60680;52.182;5.398;2022-08-19T02:20:14;101412.84;;;18.33;82.90
71976;BME280;60680;52.182;5.398;2022-08-19T02:22:42;101417.91;;;18.37;83.00
71976;BME280;60680;52.182;5.398;2022-08-19T02:25:10;101407.91;;;18.29;83.46
71976;BME280;60680;52.182;5.398;2022-08-19T02:27:39;101407.44;;;18.24;83.56
71976;BME280;60680;52.182;5.398;2022-08-19T02:30:08;101411.63;;;18.26;83.28
71976;BME280;60680;52.182;5.398;2022-08-19T02:32:39;101414.25;;;18.26;82.60
71976;BME280;60680;52.182;5.398;2022-08-19T02:35:11;101421.94;;;18.29;82.47
71976;BME280;60680;52.182;5.398;2022-08-19T02:37:38;101418.25;;;18.32;82.57
71976;BME280;60680;52.182;5.398;2022-08-19T02:40:22;101428.06;;;18.30;82.58
71976;BME280;60680;52.182;5.398;2022-08-19T02:42:49;101420.59;;;18.24;83.32
71976;BME280;60680;52.182;5.398;2022-08-19T02:45:16;101436.84;;;18.18;83.19
71976;BME280;60680;52.182;5.398;2022-08-19T02:47:42;101431.19;;;18.11;83.38
71976;BME280;60680;52.182;5.398;2022-08-19T02:50:09;101438.03;;;18.13;83.07
71976;BME280;60680;52.182;5.398;2022-08-19T02:52:35;101436.13;;;18.16;82.73
71976;BME280;60680;52.182;5.398;2022-08-19T02:55:02;101434.44;;;18.14;82.71
71976;BME280;60680;52.182;5.398;2022-08-19T02:57:30;101425.06;;;18.10;82.64
71976;BME280;60680;52.182;5.398;2022-08-19T02:59:58;101430.56;;;18.07;82.54
71976;BME280;60680;52.182;5.398;2022-08-19T03:02:25;101421.94;;;18.05;81.83
71976;BME280;60680;52.182;5.398;2022-08-19T03:04:51;101427.22;;;18.05;81.99
71976;BME280;60680;52.182;5.398;2022-08-19T03:07:18;101424.56;;;18.05;81.99
71976;BME280;60680;52.182;5.398;2022-08-19T03:09:44;101428.91;;;18.06;82.13
71976;BME280;60680;52.182;5.398;2022-08-19T03:12:11;101420.28;;;18.04;82.08
71976;BME280;60680;52.182;5.398;2022-08-19T03:14:37;101415.94;;;18.03;82.80
71976;BME280;60680;52.182;5.398;2022-08-19T03:17:04;101413.66;;;17.99;82.91
71976;BME280;60680;52.182;5.398;2022-08-19T03:19:31;101417.13;;;17.99;82.82
71976;BME280;60680;52.182;5.398;2022-08-19T03:21:57;101412.91;;;17.97;82.81
71976;BME280;60680;52.182;5.398;2022-08-19T03:24:24;101412.81;;;17.98;82.69
71976;BME280;60680;52.182;5.398;2022-08-19T03:26:53;101411.84;;;17.99;82.74
71976;BME280;60680;52.182;5.398;2022-08-19T03:29:23;101408.38;;;17.99;83.19
71976;BME280;60680;52.182;5.398;2022-08-19T03:31:57;101405.84;;;17.97;82.98
71976;BME280;60680;52.182;5.398;2022-08-19T03:34:26;101414.31;;;17.89;83.78
71976;BME280;60680;52.182;5.398;2022-08-19T03:36:59;101405.06;;;17.84;84.02
71976;BME280;60680;52.182;5.398;2022-08-19T03:39:29;101402.59;;;17.81;84.13
71976;BME280;60680;52.182;5.398;2022-08-19T03:41:56;101404.53;;;17.79;83.83
71976;BME280;60680;52.182;5.398;2022-08-19T03:44:48;101413.25;;;17.79;83.85
71976;BME280;60680;52.182;5.398;2022-08-19T03:47:14;101406.19;;;17.80;83.57
71976;BME280;60680;52.182;5.398;2022-08-19T03:49:43;101408.94;;;17.78;83.97
71976;BME280;60680;52.182;5.398;2022-08-19T03:52:10;101416.22;;;17.75;83.95
71976;BME280;60680;52.182;5.398;2022-08-19T03:54:36;101405.81;;;17.73;83.95
71976;BME280;60680;52.182;5.398;2022-08-19T03:57:04;101407.91;;;17.68;83.63
71976;BME280;60680;52.182;5.398;2022-08-19T03:59:34;101401.91;;;17.66;83.78
71976;BME280;60680;52.182;5.398;2022-08-19T04:02:05;101404.44;;;17.67;83.93
71976;BME280;60680;52.182;5.398;2022-08-19T04:04:40;101403.38;;;17.70;83.27
71976;BME280;60680;52.182;5.398;2022-08-19T04:07:08;101409.50;;;17.70;83.28
71976;BME280;60680;52.182;5.398;2022-08-19T04:09:36;101409.50;;;17.70;83.47
71976;BME280;60680;52.182;5.398;2022-08-19T04:12:03;101406.34;;;17.65;83.24
71976;BME280;60680;52.182;5.398;2022-08-19T04:14:32;101397.09;;;17.60;83.63
71976;BME280;60680;52.182;5.398;2022-08-19T04:17:01;101399.31;;;17.53;83.91
71976;BME280;60680;52.182;5.398;2022-08-19T04:19:30;101390.47;;;17.54;84.23
71976;BME280;60680;52.182;5.398;2022-08-19T04:21:57;101393.84;;;17.56;83.85
71976;BME280;60680;52.182;5.398;2022-08-19T04:24:24;101390.38;;;17.56;83.77
71976;BME280;60680;52.182;5.398;2022-08-19T04:26:51;101398.16;;;17.57;83.97
71976;BME280;60680;52.182;5.398;2022-08-19T04:29:20;101393.75;;;17.58;84.05
71976;BME280;60680;52.182;5.398;2022-08-19T04:31:48;101396.38;;;17.58;83.33
71976;BME280;60680;52.182;5.398;2022-08-19T04:34:17;101395.75;;;17.54;83.40
71976;BME280;60680;52.182;5.398;2022-08-19T04:36:44;101396.91;;;17.50;83.78
71976;BME280;60680;52.182;5.398;2022-08-19T04:39:16;101393.44;;;17.49;84.25
71976;BME280;60680;52.182;5.398;2022-08-19T04:41:44;101393.44;;;17.49;84.08
71976;BME280;60680;52.182;5.398;2022-08-19T04:44:34;101390.91;;;17.48;84.02
71976;BME280;60680;52.182;5.398;2022-08-19T04:47:02;101389.97;;;17.49;83.67
71976;BME280;60680;52.182;5.398;2022-08-19T04:49:36;101388.38;;;17.46;83.66
71976;BME280;60680;52.182;5.398;2022-08-19T04:52:03;101390.41;;;17.43;84.15
71976;BME280;60680;52.182;5.398;2022-08-19T04:54:29;101379.03;;;17.42;84.30
71976;BME280;60680;52.182;5.398;2022-08-19T04:57:05;101386.81;;;17.44;84.46
71976;BME280;60680;52.182;5.398;2022-08-19T04:59:33;101395.69;;;17.43;83.82
71976;BME280;60680;52.182;5.398;2022-08-19T05:02:00;101389.69;;;17.41;83.90
71976;BME280;60680;52.182;5.398;2022-08-19T05:04:27;101400.50;;;17.36;84.52
71976;BME280;60680;52.182;5.398;2022-08-19T05:06:58;101404.94;;;17.36;84.56
71976;BME280;60680;52.182;5.398;2022-08-19T05:09:28;101411.88;;;17.37;84.71
71976;BME280;60680;52.182;5.398;2022-08-19T05:12:16;101412.09;;;17.33;84.65
71976;BME280;60680;52.182;5.398;2022-08-19T05:14:43;101424.41;;;17.33;84.83
71976;BME280;60680;52.182;5.398;2022-08-19T05:17:11;101425.13;;;17.35;84.77
71976;BME280;60680;52.182;5.398;2022-08-19T05:19:58;101415.13;;;17.40;84.64
71976;BME280;60680;52.182;5.398;2022-08-19T05:22:44;101415.75;;;17.44;84.77
71976;BME280;60680;52.182;5.398;2022-08-19T05:25:16;101416.41;;;17.47;84.75
71976;BME280;60680;52.182;5.398;2022-08-19T05:27:45;101413.53;;;17.50;84.65
71976;BME280;60680;52.182;5.398;2022-08-19T05:30:12;101408.91;;;17.54;84.06
71976;BME280;60680;52.182;5.398;2022-08-19T05:32:39;101414.06;;;17.56;84.47
71976;BME280;60680;52.182;5.398;2022-08-19T05:35:06;101413.94;;;17.57;84.52
71976;BME280;60680;52.182;5.398;2022-08-19T05:37:33;101417.31;;;17.59;84.49
71976;BME280;60680;52.182;5.398;2022-08-19T05:39:59;101417.94;;;17.63;84.51
71976;BME280;60680;52.182;5.398;2022-08-19T05:42:26;101419.50;;;17.65;84.79
71976;BME280;60680;52.182;5.398;2022-08-19T05:44:52;101408.78;;;17.68;84.69
71976;BME280;60680;52.182;5.398;2022-08-19T05:47:19;101412.97;;;17.71;85.04
71976;BME280;60680;52.182;5.398;2022-08-19T05:49:47;101408.34;;;17.75;85.38
71976;BME280;60680;52.182;5.398;2022-08-19T05:52:16;101407.88;;;17.81;85.32
71976;BME280;60680;52.182;5.398;2022-08-19T05:54:45;101411.06;;;17.86;85.69
71976;BME280;60680;52.182;5.398;2022-08-19T05:57:17;101403.66;;;17.91;86.28
71976;BME280;60680;52.182;5.398;2022-08-19T05:59:44;101410.28;;;17.97;86.46
71976;BME280;60680;52.182;5.398;2022-08-19T06:02:14;101406.47;;;18.01;86.66
71976;BME280;60680;52.182;5.398;2022-08-19T06:04:40;101410.66;;;18.03;87.25
71976;BME280;60680;52.182;5.398;2022-08-19T06:07:09;101415.84;;;18.05;87.84
71976;BME280;60680;52.182;5.398;2022-08-19T06:09:39;101410.66;;;18.03;88.76
71976;BME280;60680;52.182;5.398;2022-08-19T06:12:06;101416.97;;;18.13;88.62
71976;BME280;60680;52.182;5.398;2022-08-19T06:14:34;101405.72;;;18.23;88.50
71976;BME280;60680;52.182;5.398;2022-08-19T06:17:06;101416.19;;;18.36;87.87
71976;BME280;60680;52.182;5.398;2022-08-19T06:19:33;101409.41;;;18.44;87.77
71976;BME280;60680;52.182;5.398;2022-08-19T06:22:06;101414.72;;;18.56;87.61
71976;BME280;60680;52.182;5.398;2022-08-19T06:24:33;101412.59;;;18.72;86.64
71976;BME280;60680;52.182;5.398;2022-08-19T06:27:00;101414.13;;;18.87;85.99
71976;BME280;60680;52.182;5.398;2022-08-19T06:29:28;101409.56;;;18.89;85.70
71976;BME280;60680;52.182;5.398;2022-08-19T06:31:58;101412.69;;;18.83;86.23
71976;BME280;60680;52.182;5.398;2022-08-19T06:34:26;101406.13;;;18.76;86.42
71976;BME280;60680;52.182;5.398;2022-08-19T06:36:55;101407.75;;;18.79;86.45
71976;BME280;60680;52.182;5.398;2022-08-19T06:39:25;101418.78;;;18.84;85.91
71976;BME280;60680;52.182;5.398;2022-08-19T06:41:55;101425.63;;;18.86;85.93
71976;BME280;60680;52.182;5.398;2022-08-19T06:44:27;101422.75;;;18.89;85.99
71976;BME280;60680;52.182;5.398;2022-08-19T06:46:55;101425.75;;;18.96;85.83
71976;BME280;60680;52.182;5.398;2022-08-19T06:49:23;101429.59;;;18.92;85.37
71976;BME280;60680;52.182;5.398;2022-08-19T06:51:50;101418.31;;;18.90;86.03
71976;BME280;60680;52.182;5.398;2022-08-19T06:54:17;101420.44;;;18.85;86.60
71976;BME280;60680;52.182;5.398;2022-08-19T06:56:45;101425.50;;;18.88;86.27
71976;BME280;60680;52.182;5.398;2022-08-19T06:59:16;101411.13;;;18.92;86.36
71976;BME280;60680;52.182;5.398;2022-08-19T07:01:52;101419.88;;;18.92;86.01
71976;BME280;60680;52.182;5.398;2022-08-19T07:04:23;101422.03;;;18.87;86.04
71976;BME280;60680;52.182;5.398;2022-08-19T07:06:58;101428.75;;;18.91;86.33
71976;BME280;60680;52.182;5.398;2022-08-19T07:09:44;101425.97;;;18.93;86.29
71976;BME280;60680;52.182;5.398;2022-08-19T07:12:23;101428.75;;;18.91;86.04
71976;BME280;60680;52.182;5.398;2022-08-19T07:14:51;101429.25;;;18.97;86.23
71976;BME280;60680;52.182;5.398;2022-08-19T07:17:19;101429.13;;;18.98;85.91
71976;BME280;60680;52.182;5.398;2022-08-19T07:19:46;101436.06;;;18.99;85.73
71976;BME280;60680;52.182;5.398;2022-08-19T07:22:14;101442.91;;;19.02;85.93
71976;BME280;60680;52.182;5.398;2022-08-19T07:24:42;101449.63;;;18.94;85.77
71976;BME280;60680;52.182;5.398;2022-08-19T07:27:17;101435.22;;;18.99;85.42
71976;BME280;60680;52.182;5.398;2022-08-19T07:29:52;101435.84;;;19.02;85.35
71976;BME280;60680;52.182;5.398;2022-08-19T07:32:24;101432.25;;;19.03;85.51
71976;BME280;60680;52.182;5.398;2022-08-19T07:34:53;101432.25;;;19.03;85.37
71976;BME280;60680;52.182;5.398;2022-08-19T07:37:19;101441.34;;;19.10;85.74
71976;BME280;60680;52.182;5.398;2022-08-19T07:39:47;101438.13;;;19.18;85.66
71976;BME280;60680;52.182;5.398;2022-08-19T07:42:13;101432.84;;;19.29;84.54
71976;BME280;60680;52.182;5.398;2022-08-19T07:44:41;101442.72;;;19.39;84.13
71976;BME280;60680;52.182;5.398;2022-08-19T07:47:15;101443.44;;;19.41;84.21
71976;BME280;60680;52.182;5.398;2022-08-19T07:50:06;101442.34;;;19.32;83.62
71976;BME280;60680;52.182;5.398;2022-08-19T07:52:33;101448.94;;;19.26;84.08
71976;BME280;60680;52.182;5.398;2022-08-19T07:55:00;101450.38;;;19.30;84.28
71976;BME280;60680;52.182;5.398;2022-08-19T07:57:29;101462.59;;;19.31;83.66
71976;BME280;60680;52.182;5.398;2022-08-19T07:59:56;101453.63;;;19.34;83.54
71976;BME280;60680;52.182;5.398;2022-08-19T08:02:22;101455.66;;;19.42;83.41
71976;BME280;60680;52.182;5.398;2022-08-19T08:04:49;101456.38;;;19.44;82.97
71976;BME280;60680;52.182;5.398;2022-08-19T08:07:34;101462.16;;;19.49;83.83
71976;BME280;60680;52.182;5.398;2022-08-19T08:10:19;101465.97;;;19.56;83.42
71976;BME280;60680;52.182;5.398;2022-08-19T08:12:49;101471.50;;;19.53;82.52
71976;BME280;60680;52.182;5.398;2022-08-19T08:15:36;101475.56;;;19.57;83.20
71976;BME280;60680;52.182;5.398;2022-08-19T08:18:08;101475.94;;;19.52;82.99
71976;BME280;60680;52.182;5.398;2022-08-19T08:20:35;101482.28;;;19.50;83.09
71976;BME280;60680;52.182;5.398;2022-08-19T08:23:02;101485.56;;;19.53;82.94
71976;BME280;60680;52.182;5.398;2022-08-19T08:25:48;101480.13;;;19.55;83.10
71976;BME280;60680;52.182;5.398;2022-08-19T08:28:16;101483.25;;;19.60;83.01
71976;BME280;60680;52.182;5.398;2022-08-19T08:30:43;101485.66;;;19.63;82.01
71976;BME280;60680;52.182;5.398;2022-08-19T08:33:13;101489.63;;;19.69;81.88
71976;BME280;60680;52.182;5.398;2022-08-19T08:35:45;101500.94;;;19.71;81.31
71976;BME280;60680;52.182;5.398;2022-08-19T08:38:15;101499.47;;;19.67;81.31
71976;BME280;60680;52.182;5.398;2022-08-19T08:40:48;101504.53;;;19.70;81.76
71976;BME280;60680;52.182;5.398;2022-08-19T08:43:33;101499.38;;;19.80;81.16
71976;BME280;60680;52.182;5.398;2022-08-19T08:46:15;101495.72;;;20.03;80.39
71976;BME280;60680;52.182;5.398;2022-08-19T08:49:16;101493.44;;;20.21;79.33
71976;BME280;60680;52.182;5.398;2022-08-19T08:51:51;101497.03;;;20.20;78.52
71976;BME280;60680;52.182;5.398;2022-08-19T08:54:33;101495.22;;;20.21;78.57
71976;BME280;60680;52.182;5.398;2022-08-19T08:57:04;101493.63;;;20.29;78.02
71976;BME280;60680;52.182;5.398;2022-08-19T08:59:38;101498.75;;;20.42;78.26
71976;BME280;60680;52.182;5.398;2022-08-19T09:02:08;101494.53;;;20.51;77.73
71976;BME280;60680;52.182;5.398;2022-08-19T09:04:36;101489.09;;;20.64;77.02
71976;BME280;60680;52.182;5.398;2022-08-19T09:07:30;101486.06;;;20.68;76.24
71976;BME280;60680;52.182;5.398;2022-08-19T09:10:22;101493.19;;;20.68;76.66
71976;BME280;60680;52.182;5.398;2022-08-19T09:16:02;101501.50;;;20.84;75.77
71976;BME280;60680;52.182;5.398;2022-08-19T09:18:45;101500.59;;;20.95;75.40
71976;BME280;60680;52.182;5.398;2022-08-19T09:21:14;101502.59;;;21.03;74.55
71976;BME280;60680;52.182;5.398;2022-08-19T09:23:42;101503.50;;;21.13;73.69
71976;BME280;60680;52.182;5.398;2022-08-19T09:26:12;101502.53;;;21.14;74.36
71976;BME280;60680;52.182;5.398;2022-08-19T09:28:43;101497.50;;;21.11;72.98
71976;BME280;60680;52.182;5.398;2022-08-19T09:31:22;101498.94;;;21.15;73.42
71976;BME280;60680;52.182;5.398;2022-08-19T09:33:51;101502.31;;;21.27;73.17
71976;BME280;60680;52.182;5.398;2022-08-19T09:36:20;101495.66;;;21.32;72.76
71976;BME280;60680;52.182;5.398;2022-08-19T09:39:00;101503.94;;;21.39;73.83
71976;BME280;60680;52.182;5.398;2022-08-19T09:41:28;101494.78;;;21.43;73.07
71976;BME280;60680;52.182;5.398;2022-08-19T09:43:59;101508.25;;;21.40;72.94
71976;BME280;60680;52.182;5.398;2022-08-19T09:46:28;101505.03;;;21.36;73.58
71976;BME280;60680;52.182;5.398;2022-08-19T09:48:57;101499.03;;;21.34;72.74
71976;BME280;60680;52.182;5.398;2022-08-19T09:51:32;101498.91;;;21.67;73.73
71976;BME280;60680;52.182;5.398;2022-08-19T09:54:02;101498.69;;;21.79;71.67
71976;BME280;60680;52.182;5.398;2022-08-19T09:56:31;101501.34;;;21.79;72.03
71976;BME280;60680;52.182;5.398;2022-08-19T09:59:00;101501.78;;;21.85;70.88
71976;BME280;60680;52.182;5.398;2022-08-19T10:01:30;101502.78;;;21.93;70.94
71976;BME280;60680;52.182;5.398;2022-08-19T10:03:59;101499.56;;;21.90;70.59
71976;BME280;60680;52.182;5.398;2022-08-19T10:06:28;101494.78;;;21.84;70.28
71976;BME280;60680;52.182;5.398;2022-08-19T10:09:12;101498.91;;;21.97;70.99
71976;BME280;60680;52.182;5.398;2022-08-19T10:11:41;101494.41;;;21.98;70.43
71976;BME280;60680;52.182;5.398;2022-08-19T10:14:20;101495.28;;;22.08;71.15
71976;BME280;60680;52.182;5.398;2022-08-19T10:16:49;101504.47;;;22.04;69.90
71976;BME280;60680;52.182;5.398;2022-08-19T10:19:18;101507.56;;;21.99;69.55
71976;BME280;60680;52.182;5.398;2022-08-19T10:21:53;101510.03;;;22.01;70.09
71976;BME280;60680;52.182;5.398;2022-08-19T10:24:25;101499.34;;;22.12;69.42
71976;BME280;60680;52.182;5.398;2022-08-19T10:26:55;101494.66;;;22.26;68.40
71976;BME280;60680;52.182;5.398;2022-08-19T10:29:26;101493.22;;;22.31;68.39
71976;BME280;60680;52.182;5.398;2022-08-19T10:32:04;101491.44;;;22.42;68.42
71976;BME280;60680;52.182;5.398;2022-08-19T10:34:39;101489.91;;;22.58;68.30
71976;BME280;60680;52.182;5.398;2022-08-19T10:37:15;101491.72;;;22.68;67.01
71976;BME280;60680;52.182;5.398;2022-08-19T10:39:54;101488.66;;;22.63;67.05
71976;BME280;60680;52.182;5.398;2022-08-19T10:42:21;101484.19;;;22.53;67.04
71976;BME280;60680;52.182;5.398;2022-08-19T10:44:48;101483.19;;;22.54;68.23
71976;BME280;60680;52.182;5.398;2022-08-19T10:47:17;101481.38;;;22.65;67.81
71976;BME280;60680;52.182;5.398;2022-08-19T10:49:52;101482.63;;;22.80;67.19
71976;BME280;60680;52.182;5.398;2022-08-19T10:52:46;101481.78;;;22.79;66.89
71976;BME280;60680;52.182;5.398;2022-08-19T10:55:16;101483.88;;;22.95;67.50
71976;BME280;60680;52.182;5.398;2022-08-19T10:58:01;101473.25;;;23.05;67.80
71976;BME280;60680;52.182;5.398;2022-08-19T11:00:28;101482.28;;;23.22;67.00
71976;BME280;60680;52.182;5.398;2022-08-19T11:02:57;101475.38;;;23.49;66.97
71976;BME280;60680;52.182;5.398;2022-08-19T11:05:23;101466.06;;;23.63;66.18
71976;BME280;60680;52.182;5.398;2022-08-19T11:07:50;101472.56;;;23.78;65.78
71976;BME280;60680;52.182;5.398;2022-08-19T11:10:18;101464.56;;;23.88;65.51
71976;BME280;60680;52.182;5.398;2022-08-19T11:12:47;101468.81;;;23.71;64.46
71976;BME280;60680;52.182;5.398;2022-08-19T11:15:14;101469.97;;;23.58;66.07
71976;BME280;60680;52.182;5.398;2022-08-19T11:17:41;101463.56;;;23.61;64.86
71976;BME280;60680;52.182;5.398;2022-08-19T11:20:14;101458.91;;;23.63;66.33
71976;BME280;60680;52.182;5.398;2022-08-19T11:22:41;101458.31;;;23.79;64.61
71976;BME280;60680;52.182;5.398;2022-08-19T11:25:09;101453.09;;;24.05;65.42
71976;BME280;60680;52.182;5.398;2022-08-19T11:27:40;101455.25;;;24.19;65.08
71976;BME280;60680;52.182;5.398;2022-08-19T11:30:13;101460.31;;;24.31;63.15
71976;BME280;60680;52.182;5.398;2022-08-19T11:32:40;101451.66;;;24.29;63.72
71976;BME280;60680;52.182;5.398;2022-08-19T11:35:13;101449.94;;;24.01;63.80
71976;BME280;60680;52.182;5.398;2022-08-19T11:37:40;101446.31;;;23.93;64.78
71976;BME280;60680;52.182;5.398;2022-08-19T11:40:07;101446.25;;;24.02;64.92
71976;BME280;60680;52.182;5.398;2022-08-19T11:42:34;101438.75;;;24.34;64.67
71976;BME280;60680;52.182;5.398;2022-08-19T11:45:19;101447.97;;;24.57;63.13
71976;BME280;60680;52.182;5.398;2022-08-19T11:47:46;101447.22;;;24.73;62.02
71976;BME280;60680;52.182;5.398;2022-08-19T11:50:14;101446.66;;;24.88;62.93
71976;BME280;60680;52.182;5.398;2022-08-19T11:52:41;101449.59;;;24.76;62.09
71976;BME280;60680;52.182;5.398;2022-08-19T11:55:09;101445.09;;;24.51;63.72
71976;BME280;60680;52.182;5.398;2022-08-19T11:57:35;101452.88;;;24.34;64.38
71976;BME280;60680;52.182;5.398;2022-08-19T12:00:03;101451.97;;;24.26;64.59
71976;BME280;60680;52.182;5.398;2022-08-19T12:02:31;101455.00;;;24.13;64.87
71976;BME280;60680;52.182;5.398;2022-08-19T12:04:58;101455.38;;;24.00;65.82
71976;BME280;60680;52.182;5.398;2022-08-19T12:07:25;101452.25;;;23.87;66.28
71976;BME280;60680;52.182;5.398;2022-08-19T12:09:51;101451.59;;;23.75;67.55
71976;BME280;60680;52.182;5.398;2022-08-19T12:12:20;101453.59;;;23.63;66.74
71976;BME280;60680;52.182;5.398;2022-08-19T12:14:47;101461.50;;;23.55;68.17
71976;BME280;60680;52.182;5.398;2022-08-19T12:17:14;101472.16;;;23.45;68.00
71976;BME280;60680;52.182;5.398;2022-08-19T12:19:40;101462.25;;;23.37;68.99
71976;BME280;60680;52.182;5.398;2022-08-19T12:22:07;101475.31;;;23.21;68.75
71976;BME280;60680;52.182;5.398;2022-08-19T12:24:33;101477.84;;;23.13;71.22
71976;BME280;60680;52.182;5.398;2022-08-19T12:27:01;101479.84;;;22.91;78.71
71976;BME280;60680;52.182;5.398;2022-08-19T12:29:28;101484.44;;;22.31;84.33
71976;BME280;60680;52.182;5.398;2022-08-19T12:31:59;101479.75;;;21.94;86.93
71976;BME280;60680;52.182;5.398;2022-08-19T12:34:30;101487.78;;;21.73;88.56
71976;BME280;60680;52.182;5.398;2022-08-19T12:36:58;101491.81;;;21.67;89.84
71976;BME280;60680;52.182;5.398;2022-08-19T12:39:25;101491.25;;;21.64;90.64
71976;BME280;60680;52.182;5.398;2022-08-19T12:41:52;101492.19;;;21.53;89.46
71976;BME280;60680;52.182;5.398;2022-08-19T12:44:22;101489.84;;;21.38;90.75
71976;BME280;60680;52.182;5.398;2022-08-19T12:46:55;101487.72;;;21.32;91.17
71976;BME280;60680;52.182;5.398;2022-08-19T12:49:22;101494.66;;;21.24;90.99
71976;BME280;60680;52.182;5.398;2022-08-19T12:52:11;101490.78;;;21.28;92.86
71976;BME280;60680;52.182;5.398;2022-08-19T12:54:42;101489.75;;;21.19;91.31
71976;BME280;60680;52.182;5.398;2022-08-19T12:57:12;101487.97;;;21.29;93.09
71976;BME280;60680;52.182;5.398;2022-08-19T12:59:39;101481.19;;;21.36;92.45
71976;BME280;60680;52.182;5.398;2022-08-19T13:02:06;101477.00;;;21.55;94.04
71976;BME280;60680;52.182;5.398;2022-08-19T13:04:34;101468.19;;;21.95;93.37
71976;BME280;60680;52.182;5.398;2022-08-19T13:07:03;101470.88;;;22.14;91.85
71976;BME280;60680;52.182;5.398;2022-08-19T13:09:29;101471.16;;;22.02;89.32